createdAt,value
2023-04-01T00:02:16.978Z,98615.59
2023-04-01T00:05:18.540Z,98609.06
2023-04-01T00:08:20.010Z,98610.56
2023-04-01T00:11:21.938Z,98614.34
2023-04-01T00:14:23.328Z,98618.75
2023-04-01T00:17:24.827Z,98612.03
2023-04-01T00:20:26.669Z,98617.66
2023-04-01T00:23:28.125Z,98596.41
2023-04-01T00:26:29.558Z,98590.66
2023-04-01T00:29:31.581Z,98599.75
2023-04-01T00:32:33.163Z,98602.06
2023-04-01T00:35:35.621Z,98606.38
2023-04-01T00:38:38.342Z,98608.50
2023-04-01T00:41:39.947Z,98603.75
2023-04-01T00:44:42.243Z,98608.66
2023-04-01T00:47:43.872Z,98612.22
2023-04-01T00:51:04.781Z,98611.94
2023-04-01T00:54:07.737Z,98622.06
2023-04-01T00:57:13.644Z,98613.03
2023-04-01T01:00:16.778Z,98601.03
2023-04-01T01:03:18.703Z,98615.22
2023-04-01T01:06:32.174Z,98618.06
2023-04-01T01:09:39.692Z,98614.56
2023-04-01T01:13:10.210Z,98616.13
2023-04-01T01:16:25.120Z,98614.56
2023-04-01T01:19:51.606Z,98621.59
2023-04-01T01:23:19.878Z,98629.38
2023-04-01T01:26:52.966Z,98612.28
2023-04-01T01:30:14.574Z,98612.28
2023-04-01T01:33:33.259Z,98614.69
2023-04-01T01:36:38.478Z,98617.19
2023-04-01T01:39:47.058Z,98620.13
2023-04-01T01:42:53.018Z,98609.16
2023-04-01T01:46:01.044Z,98607.69
2023-04-01T01:49:06.044Z,98608.72
2023-04-01T01:52:07.756Z,98608.19
2023-04-01T01:55:29.947Z,98607.72
2023-04-01T01:58:41.408Z,98604.78
2023-04-01T02:01:47.641Z,98606.13
2023-04-01T02:04:51.345Z,98602.22
2023-04-01T02:08:17.264Z,98610.66
2023-04-01T02:11:24.945Z,98598.28
2023-04-01T02:14:42.953Z,98604.47
2023-04-01T02:17:46.889Z,98601.69
2023-04-01T02:20:50.146Z,98604.66
2023-04-01T02:23:54.945Z,98606.72
2023-04-01T02:26:56.394Z,98604.88
2023-04-01T02:29:58.824Z,98600.84
2023-04-01T02:33:01.275Z,98608.47
2023-04-01T02:36:02.857Z,98600.84
2023-04-01T02:39:05.544Z,98588.56
2023-04-01T02:42:07.102Z,98591.72
2023-04-01T02:45:09.516Z,98595.94
2023-04-01T02:48:11.183Z,98576.91
2023-04-01T02:51:12.626Z,98585.53
2023-04-01T02:54:14.416Z,98571.09
2023-04-01T02:57:18.337Z,98580.63
2023-04-01T03:00:19.958Z,98579.81
2023-04-01T03:03:21.624Z,98582.06
2023-04-01T03:06:23.138Z,98577.56
2023-04-01T03:09:24.634Z,98567.69
2023-04-01T03:12:26.138Z,98575.25
2023-04-01T03:15:27.738Z,98569.56
2023-04-01T03:18:29.595Z,98573.28
2023-04-01T03:21:32.415Z,98561.47
2023-04-01T03:24:33.828Z,98567.53
2023-04-01T03:27:36.609Z,98559.75
2023-04-01T03:30:38.107Z,98552.41
2023-04-01T03:33:39.606Z,98546.84
2023-04-01T03:36:41.069Z,98562.97
2023-04-01T03:39:44.497Z,98566.31
2023-04-01T03:42:46.086Z,98572.19
2023-04-01T03:45:49.768Z,98566.63
2023-04-01T03:48:51.172Z,98561.28
2023-04-01T03:51:52.794Z,98559.34
2023-04-01T03:54:54.467Z,98555.94
2023-04-01T03:57:56.237Z,98559.66
2023-04-01T04:00:58.030Z,98558.72
2023-04-01T04:04:00.211Z,98553.00
2023-04-01T04:07:01.737Z,98557.78
2023-04-01T04:10:09.430Z,98549.94
2023-04-01T04:13:11.094Z,98546.06
2023-04-01T04:16:19.725Z,98554.91
2023-04-01T04:19:27.739Z,98548.00
2023-04-01T04:22:29.325Z,98544.06
2023-04-01T04:25:31.168Z,98546.31
2023-04-01T04:28:33.424Z,98535.19
2023-04-01T04:31:35.157Z,98544.94
2023-04-01T04:34:36.741Z,98541.00
2023-04-01T04:37:38.269Z,98546.16
2023-04-01T04:40:42.229Z,98557.69
2023-04-01T04:43:51.052Z,98562.09
2023-04-01T04:46:52.590Z,98548.53
2023-04-01T04:49:54.086Z,98558.09
2023-04-01T04:52:55.767Z,98549.84
2023-04-01T04:55:57.681Z,98547.31
2023-04-01T04:59:09.542Z,98548.28
2023-04-01T05:02:23.687Z,98531.72
2023-04-01T05:05:25.407Z,98523.50
2023-04-01T05:08:26.999Z,98541.19
2023-04-01T05:11:28.562Z,98521.59
2023-04-01T05:14:30.865Z,98528.91
2023-04-01T05:17:40.340Z,98530.69
2023-04-01T05:20:47.699Z,98520.28
2023-04-01T05:23:49.586Z,98519.97
2023-04-01T05:26:51.334Z,98522.84
2023-04-01T05:29:52.927Z,98529.38
2023-04-01T05:33:15.709Z,98526.47
2023-04-01T05:36:17.576Z,98526.75
2023-04-01T05:39:19.206Z,98532.53
2023-04-01T05:42:21.482Z,98524.78
2023-04-01T05:45:24.719Z,98522.91
2023-04-01T05:48:44.559Z,98520.91
2023-04-01T05:51:46.251Z,98522.59
2023-04-01T05:54:47.793Z,98516.03
2023-04-01T05:57:50.466Z,98515.34
2023-04-01T06:01:05.851Z,98514.19
2023-04-01T06:04:16.380Z,98513.94
2023-04-01T06:07:18.891Z,98497.44
2023-04-01T06:10:22.166Z,98510.09
2023-04-01T06:13:55.626Z,98501.56
2023-04-01T06:17:24.050Z,98509.94
2023-04-01T06:20:48.706Z,98513.69
2023-04-01T06:24:13.917Z,98518.22
2023-04-01T06:27:53.948Z,98510.44
2023-04-01T06:31:11.929Z,98513.19
2023-04-01T06:34:53.469Z,98503.44
2023-04-01T06:38:36.429Z,98505.56
2023-04-01T06:41:41.222Z,98499.22
2023-04-01T06:45:07.715Z,98520.81
2023-04-01T06:48:44.270Z,98519.31
2023-04-01T06:52:23.739Z,98516.66
2023-04-01T06:56:11.606Z,98529.97
2023-04-01T06:59:35.936Z,98532.13
2023-04-01T07:02:44.155Z,98514.28
2023-04-01T07:05:45.883Z,98517.53
2023-04-01T07:08:49.770Z,98532.78
2023-04-01T07:11:52.866Z,98538.91
2023-04-01T07:15:39.427Z,98535.25
2023-04-01T07:18:49.305Z,98531.97
2023-04-01T07:21:56.162Z,98532.72
2023-04-01T07:25:16.621Z,98540.47
2023-04-01T07:28:23.113Z,98538.97
2023-04-01T07:31:55.581Z,98538.06
2023-04-01T07:35:22.259Z,98541.75
2023-04-01T07:38:41.620Z,98553.91
2023-04-01T07:41:47.854Z,98549.09
2023-04-01T07:45:16.812Z,98547.84
2023-04-01T07:48:34.044Z,98556.88
2023-04-01T07:51:46.471Z,98568.88
2023-04-01T07:55:11.034Z,98573.75
2023-04-01T07:58:27.939Z,98575.69
2023-04-01T08:01:34.736Z,98577.00
2023-04-01T08:04:36.404Z,98579.41
2023-04-01T08:07:51.331Z,98582.03
2023-04-01T08:11:26.289Z,98584.69
2023-04-01T08:14:52.165Z,98587.59
2023-04-01T08:18:29.240Z,98589.34
2023-04-01T08:21:40.086Z,98587.66
2023-04-01T08:24:47.576Z,98600.13
2023-04-01T08:28:18.768Z,98607.66
2023-04-01T08:31:32.372Z,98598.88
2023-04-01T08:34:43.250Z,98598.88
2023-04-01T08:37:58.524Z,98608.50
2023-04-01T08:41:02.421Z,98609.47
2023-04-01T08:45:01.507Z,98610.94
2023-04-01T08:48:09.601Z,98620.44
2023-04-01T08:51:31.221Z,98616.91
2023-04-01T08:54:58.565Z,98618.63
2023-04-01T08:58:55.923Z,98623.22
2023-04-01T09:02:31.734Z,98619.94
2023-04-01T09:06:21.603Z,98628.94
2023-04-01T09:09:30.307Z,98629.91
2023-04-01T09:13:00.030Z,98635.47
2023-04-01T09:16:36.604Z,98635.09
2023-04-01T09:19:53.125Z,98642.44
2023-04-01T09:23:22.312Z,98646.16
2023-04-01T09:27:15.639Z,98655.34
2023-04-01T09:30:31.750Z,98647.19
2023-04-01T09:33:45.276Z,98647.47
2023-04-01T09:37:18.739Z,98643.28
2023-04-01T09:40:38.367Z,98652.91
2023-04-01T09:44:10.526Z,98645.56
2023-04-01T09:47:47.269Z,98647.34
2023-04-01T09:51:08.011Z,98648.50
2023-04-01T09:54:15.739Z,98650.25
2023-04-01T09:57:52.789Z,98655.69
2023-04-01T10:01:56.752Z,98649.28
2023-04-01T10:05:27.595Z,98660.19
2023-04-01T10:09:07.082Z,98646.34
2023-04-01T10:12:25.974Z,98651.91
2023-04-01T10:16:05.262Z,98656.31
2023-04-01T10:19:40.817Z,98657.63
2023-04-01T10:22:54.655Z,98669.00
2023-04-01T10:26:10.733Z,98668.56
2023-04-01T10:29:33.757Z,98671.28
2023-04-01T10:33:08.674Z,98667.22
2023-04-01T10:36:38.057Z,98676.50
2023-04-01T10:40:08.134Z,98677.09
2023-04-01T10:44:15.721Z,98676.91
2023-04-01T10:47:38.345Z,98679.75
2023-04-01T10:51:17.970Z,98674.72
2023-04-01T10:54:43.951Z,98676.56
2023-04-01T10:58:30.644Z,98689.91
2023-04-01T11:02:35.594Z,98691.53
2023-04-01T11:06:14.690Z,98681.78
2023-04-01T11:09:28.292Z,98677.81
2023-04-01T11:13:10.962Z,98683.84
2023-04-01T11:16:26.001Z,98683.50
2023-04-01T11:20:01.068Z,98676.88
2023-04-01T11:23:13.674Z,98689.84
2023-04-01T11:26:43.545Z,98686.31
2023-04-01T11:30:25.933Z,98692.16
2023-04-01T11:34:11.120Z,98694.47
2023-04-01T11:37:38.082Z,98696.28
2023-04-01T11:41:26.522Z,98692.19
2023-04-01T11:45:16.601Z,98689.38
2023-04-01T11:48:40.875Z,98689.72
2023-04-01T11:51:48.380Z,98695.06
2023-04-01T11:55:21.044Z,98699.13
2023-04-01T11:58:37.363Z,98697.28
2023-04-01T12:02:10.070Z,98703.59
2023-04-01T12:05:31.155Z,98701.38
2023-04-01T12:08:47.639Z,98703.38
2023-04-01T12:12:04.207Z,98697.03
2023-04-01T12:15:30.982Z,98706.34
2023-04-01T12:18:51.068Z,98704.72
2023-04-01T12:22:13.207Z,98715.13
2023-04-01T12:25:25.971Z,98717.91
2023-04-01T12:29:06.983Z,98724.28
2023-04-01T12:32:29.094Z,98724.25
2023-04-01T12:36:09.658Z,98720.34
2023-04-01T12:39:40.376Z,98723.78
2023-04-01T12:42:58.071Z,98726.19
2023-04-01T12:46:15.078Z,98718.81
2023-04-01T12:49:35.071Z,98725.06
2023-04-01T12:53:04.137Z,98730.56
2023-04-01T12:56:14.174Z,98723.22
2023-04-01T12:59:24.565Z,98723.38
2023-04-01T13:02:41.203Z,98724.06
2023-04-01T13:05:57.676Z,98725.81
2023-04-01T13:09:20.927Z,98729.09
2023-04-01T13:12:22.351Z,98722.38
2023-04-01T13:15:41.336Z,98727.47
2023-04-01T13:18:56.759Z,98721.63
2023-04-01T13:22:02.263Z,98726.31
2023-04-01T13:25:22.472Z,98723.84
2023-04-01T13:28:33.304Z,98730.22
2023-04-01T13:31:53.406Z,98744.47
2023-04-01T13:35:06.027Z,98738.34
2023-04-01T13:38:42.000Z,98727.34
2023-04-01T13:41:47.271Z,98733.91
2023-04-01T13:45:03.650Z,98731.72
2023-04-01T13:48:17.325Z,98733.75
2023-04-01T13:51:53.167Z,98733.31
2023-04-01T13:55:07.711Z,98736.47
2023-04-01T13:58:30.002Z,98740.88
2023-04-01T14:01:48.903Z,98744.47
2023-04-01T14:05:42.150Z,98742.88
2023-04-01T14:09:16.067Z,98743.25
2023-04-01T14:12:31.377Z,98734.88
2023-04-01T14:15:51.570Z,98741.88
2023-04-01T14:19:26.231Z,98739.03
2023-04-01T14:22:47.577Z,98738.84
2023-04-01T14:26:11.037Z,98736.56
2023-04-01T14:29:18.516Z,98741.72
2023-04-01T14:32:47.878Z,98732.72
2023-04-01T14:36:20.105Z,98720.78
2023-04-01T14:39:44.033Z,98719.28
2023-04-01T14:43:08.186Z,98720.41
2023-04-01T14:46:44.345Z,98715.69
2023-04-01T14:50:17.715Z,98723.38
2023-04-01T14:53:30.170Z,98714.09
2023-04-01T14:56:45.812Z,98712.66
2023-04-01T14:59:54.475Z,98719.19
2023-04-01T15:03:04.759Z,98709.38
2023-04-01T15:06:40.454Z,98715.47
2023-04-01T15:09:50.826Z,98711.41
2023-04-01T15:13:25.608Z,98712.09
2023-04-01T15:16:36.238Z,98718.09
2023-04-01T15:20:03.129Z,98712.44
2023-04-01T15:23:28.795Z,98711.41
2023-04-01T15:26:55.210Z,98721.88
2023-04-01T15:30:18.992Z,98720.22
2023-04-01T15:33:44.839Z,98721.63
2023-04-01T15:37:01.301Z,98719.16
2023-04-01T15:40:25.931Z,98728.63
2023-04-01T15:43:45.334Z,98730.00
2023-04-01T15:46:51.078Z,98719.66
2023-04-01T15:50:14.438Z,98718.72
2023-04-01T15:53:35.007Z,98717.88
2023-04-01T15:56:57.779Z,98713.44
2023-04-01T16:00:22.903Z,98712.50
2023-04-01T16:04:12.240Z,98729.31
2023-04-01T16:07:39.592Z,98715.50
2023-04-01T16:11:00.130Z,98721.56
2023-04-01T16:14:15.341Z,98727.91
2023-04-01T16:17:34.884Z,98729.25
2023-04-01T16:21:02.528Z,98725.94
2023-04-01T16:24:11.178Z,98717.66
2023-04-01T16:27:19.891Z,98708.75
2023-04-01T16:30:46.972Z,98707.91
2023-04-01T16:33:59.682Z,98710.13
2023-04-01T16:37:04.857Z,98707.75
2023-04-01T16:40:21.205Z,98708.34
2023-04-01T16:43:27.859Z,98707.91
2023-04-01T16:46:41.242Z,98710.63
2023-04-01T16:49:53.304Z,98710.56
2023-04-01T16:53:03.654Z,98720.16
2023-04-01T16:56:21.766Z,98735.03
2023-04-01T16:59:48.498Z,98731.06
2023-04-01T17:03:05.393Z,98747.00
2023-04-01T17:06:21.476Z,98754.00
2023-04-01T17:09:35.470Z,98754.22
2023-04-01T17:13:01.511Z,98770.53
2023-04-01T17:16:31.109Z,98775.41
2023-04-01T17:19:50.909Z,98771.41
2023-04-01T17:23:05.134Z,98770.59
2023-04-01T17:26:28.685Z,98769.81
2023-04-01T17:29:36.340Z,98777.13
2023-04-01T17:33:00.812Z,98780.97
2023-04-01T17:36:17.705Z,98797.50
2023-04-01T17:39:40.390Z,98806.19
2023-04-01T17:42:51.712Z,98809.53
2023-04-01T17:46:21.508Z,98817.25
2023-04-01T17:49:40.932Z,98827.41
2023-04-01T17:53:14.936Z,98822.75
2023-04-01T17:56:30.772Z,98826.13
2023-04-01T17:59:40.417Z,98827.28
2023-04-01T18:03:06.983Z,98829.91
2023-04-01T18:06:19.687Z,98832.09
2023-04-01T18:09:38.545Z,98833.97
2023-04-01T18:13:09.436Z,98843.13
2023-04-01T18:16:50.639Z,98844.97
2023-04-01T18:19:55.251Z,98853.31
2023-04-01T18:23:21.635Z,98844.00
2023-04-01T18:26:29.531Z,98843.13
2023-04-01T18:29:42.429Z,98838.72
2023-04-01T18:33:01.947Z,98838.13
2023-04-01T18:36:40.078Z,98839.75
2023-04-01T18:39:47.335Z,98843.13
2023-04-01T18:43:09.797Z,98843.00
2023-04-01T18:46:30.436Z,98842.34
2023-04-01T18:49:56.461Z,98850.03
2023-04-01T18:53:10.976Z,98858.38
2023-04-01T18:56:16.313Z,98863.75
2023-04-01T18:59:40.457Z,98868.19
2023-04-01T19:02:48.918Z,98863.59
2023-04-01T19:05:54.600Z,98875.03
2023-04-01T19:08:56.573Z,98873.88
2023-04-01T19:12:11.103Z,98872.75
2023-04-01T19:15:12.648Z,98871.75
2023-04-01T19:18:32.136Z,98881.72
2023-04-01T19:21:44.496Z,98880.75
2023-04-01T19:25:10.401Z,98871.91
2023-04-01T19:28:21.593Z,98868.19
2023-04-01T19:31:38.325Z,98873.06
2023-04-01T19:35:11.695Z,98889.69
2023-04-01T19:38:25.309Z,98948.97
2023-04-01T19:41:38.270Z,98954.53
2023-04-01T19:44:49.717Z,98975.13
2023-04-01T19:48:09.433Z,98959.41
2023-04-01T19:51:22.980Z,98963.50
2023-04-01T19:54:44.269Z,98969.03
2023-04-01T19:58:13.153Z,98969.59
2023-04-01T20:01:44.092Z,98979.31
2023-04-01T20:04:51.794Z,98989.00
2023-04-01T20:08:00.437Z,98994.94
2023-04-01T20:11:31.292Z,98990.44
2023-04-01T20:14:51.167Z,98983.94
2023-04-01T20:17:57.491Z,98967.63
2023-04-01T20:21:06.307Z,98980.38
2023-04-01T20:24:24.650Z,98991.34
2023-04-01T20:27:37.296Z,98994.84
2023-04-01T20:31:11.660Z,98999.22
2023-04-01T20:34:23.938Z,98996.09
2023-04-01T20:37:33.168Z,99002.16
2023-04-01T20:40:42.371Z,99006.53
2023-04-01T20:44:15.546Z,99011.03
2023-04-01T20:47:19.851Z,99005.81
2023-04-01T20:50:49.145Z,99008.16
2023-04-01T20:54:11.973Z,99010.41
2023-04-01T20:57:44.496Z,99015.03
2023-04-01T21:00:54.138Z,99016.16
2023-04-01T21:04:11.737Z,99023.56
2023-04-01T21:07:28.329Z,99022.69
2023-04-01T21:10:49.931Z,99024.22
2023-04-01T21:14:08.299Z,99023.63
2023-04-01T21:17:15.711Z,99034.88
2023-04-01T21:20:17.281Z,99030.88
2023-04-01T21:23:36.381Z,99033.59
2023-04-01T21:27:23.278Z,99033.34
2023-04-01T21:30:46.183Z,99036.31
2023-04-01T21:34:21.721Z,99038.69
2023-04-01T21:37:50.290Z,99031.59
2023-04-01T21:41:14.961Z,99039.97
2023-04-01T21:44:31.804Z,99034.06
2023-04-01T21:47:45.243Z,99037.09
2023-04-01T21:51:06.774Z,99040.94
2023-04-01T21:54:19.056Z,99047.97
2023-04-01T21:57:58.482Z,99041.41
2023-04-01T22:01:12.267Z,99047.19
2023-04-01T22:04:41.610Z,99045.78
2023-04-01T22:08:01.776Z,99045.31
2023-04-01T22:11:13.335Z,99051.25
2023-04-01T22:14:32.467Z,99052.13
2023-04-01T22:17:44.232Z,99063.44
2023-04-01T22:21:06.071Z,99064.66
2023-04-01T22:24:30.570Z,99057.88
2023-04-01T22:27:44.840Z,99052.34
2023-04-01T22:30:51.818Z,99052.94
2023-04-01T22:34:15.318Z,99051.56
2023-04-01T22:37:38.309Z,99055.94
2023-04-01T22:40:59.499Z,99057.59
2023-04-01T22:44:01.385Z,99052.13
2023-04-01T22:47:19.872Z,99060.03
2023-04-01T22:50:32.826Z,99068.19
2023-04-01T22:54:08.262Z,99065.38
2023-04-01T22:57:12.967Z,99066.38
2023-04-01T23:00:25.142Z,99068.13
2023-04-01T23:03:31.496Z,99075.47
2023-04-01T23:06:43.833Z,99071.94
2023-04-01T23:09:45.442Z,99064.97
2023-04-01T23:12:48.382Z,99068.53
2023-04-01T23:15:54.272Z,99056.88
2023-04-01T23:19:02.667Z,99061.63
2023-04-01T23:22:41.905Z,99068.19
2023-04-01T23:26:02.252Z,99071.72
2023-04-01T23:29:05.178Z,99070.84
2023-04-01T23:32:16.879Z,99079.09
2023-04-01T23:35:18.406Z,99077.78
2023-04-01T23:38:27.233Z,99086.25
2023-04-01T23:41:33.535Z,99081.41
2023-04-01T23:44:36.963Z,99079.28
2023-04-01T23:47:42.011Z,99083.06
2023-04-01T23:50:45.264Z,99084.13
2023-04-01T23:53:48.435Z,99083.69
2023-04-01T23:56:53.333Z,99076.91
